Sejmchan, Russia
Current Conditions -  °F | °C
As of 12:00 AM on Friday 24 Oct 2014 (Local Time) from UHMM Reporting Station
Scattered Clouds Scattered Clouds  
Wind Chill:   Ceiling: Unl
Heat Index:   Visibility: 6mi
Dew Point: -2°   Wind: 0mph
Humidity: 85%   Direction: NA
Pressure: 29.38"   Gusts: NA
Location:  62.92°N, 152.42°E
Report Text: UHMM 231300Z 00000MPS 9999 SCT100 M17/M19 Q0995 RMK QFE731
Loading
Personal Weather Stations






























Interactive Weather Map
Tropical Storm Tracking
New forecast layout! Learn more

10-Day Weather Forecast

Advertisements
Track Severe Weather on mobile